createdAt,value
2018-04-29T00:01:01.047Z,15.50
2018-04-29T00:03:27.922Z,15.40
2018-04-29T00:05:54.719Z,15.40
2018-04-29T00:08:20.809Z,15.40
2018-04-29T00:10:46.852Z,15.50
2018-04-29T00:13:12.909Z,15.40
2018-04-29T00:15:39.209Z,15.40
2018-04-29T00:18:05.899Z,15.30
2018-04-29T00:20:32.713Z,15.30
2018-04-29T00:22:58.769Z,15.30
2018-04-29T00:25:26.573Z,15.20
2018-04-29T00:27:53.943Z,15.20
2018-04-29T00:30:20.802Z,15.10
2018-04-29T00:32:46.886Z,15.10
2018-04-29T00:35:13.373Z,15.10
2018-04-29T00:37:39.439Z,15.10
2018-04-29T00:40:05.501Z,15.10
2018-04-29T00:42:31.586Z,15.10
2018-04-29T00:44:57.740Z,15.10
2018-04-29T00:47:24.460Z,14.90
2018-04-29T00:49:51.499Z,14.90
2018-04-29T00:52:17.767Z,15.00
2018-04-29T00:54:44.501Z,14.90
2018-04-29T00:57:11.885Z,14.90
2018-04-29T00:59:37.950Z,14.80
2018-04-29T01:02:04.411Z,14.80
2018-04-29T01:04:30.831Z,14.80
2018-04-29T01:06:57.748Z,14.80
2018-04-29T01:09:25.648Z,14.70
2018-04-29T01:11:51.796Z,14.70
2018-04-29T01:14:17.829Z,14.70
2018-04-29T01:16:43.897Z,14.70
2018-04-29T01:19:10.292Z,14.60
2018-04-29T01:21:37.093Z,14.50
2018-04-29T01:24:03.576Z,14.50
2018-04-29T01:26:30.366Z,14.40
2018-04-29T01:28:56.935Z,14.40
2018-04-29T01:31:23.760Z,14.40
2018-04-29T01:33:49.912Z,14.30
2018-04-29T01:36:16.747Z,14.30
2018-04-29T01:38:43.137Z,14.30
2018-04-29T01:41:09.984Z,14.30
2018-04-29T01:43:36.041Z,14.30
2018-04-29T01:46:02.751Z,14.30
2018-04-29T01:48:35.755Z,14.30
2018-04-29T01:51:02.434Z,14.30
2018-04-29T01:53:29.919Z,14.20
2018-04-29T01:55:55.968Z,14.10
2018-04-29T01:58:22.021Z,14.20
2018-04-29T02:00:48.099Z,14.20
2018-04-29T02:03:14.827Z,14.10
2018-04-29T02:05:41.424Z,14.10
2018-04-29T02:08:08.872Z,14.10
2018-04-29T02:10:35.528Z,14.10
2018-04-29T02:13:02.865Z,14.00
2018-04-29T02:15:30.552Z,13.90
2018-04-29T02:17:56.884Z,13.90
2018-04-29T02:20:23.724Z,13.90
2018-04-29T02:22:50.536Z,13.80
2018-04-29T02:25:16.589Z,13.80
2018-04-29T02:27:43.867Z,13.70
2018-04-29T02:30:10.740Z,13.70
2018-04-29T02:32:36.827Z,13.70
2018-04-29T02:35:02.875Z,13.60
2018-04-29T02:37:28.921Z,13.70
2018-04-29T02:39:54.993Z,13.70
2018-04-29T02:42:21.075Z,13.70
2018-04-29T02:44:47.111Z,13.60
2018-04-29T02:47:13.185Z,13.50
2018-04-29T02:49:39.228Z,13.60
2018-04-29T02:52:05.277Z,13.50
2018-04-29T02:54:31.338Z,13.50
2018-04-29T02:56:57.394Z,13.50
2018-04-29T02:59:23.440Z,13.50
2018-04-29T03:01:49.515Z,13.50
2018-04-29T03:04:15.575Z,13.50
2018-04-29T03:06:41.634Z,13.50
2018-04-29T03:09:09.192Z,13.40
2018-04-29T03:11:36.659Z,13.30
2018-04-29T03:14:04.130Z,13.40
2018-04-29T03:16:30.889Z,13.40
2018-04-29T03:18:57.535Z,13.30
2018-04-29T03:21:24.104Z,13.40
2018-04-29T03:23:50.168Z,13.30
2018-04-29T03:26:16.753Z,13.40
2018-04-29T03:28:42.819Z,13.30
2018-04-29T03:31:09.627Z,13.20
2018-04-29T03:33:35.675Z,13.20
2018-04-29T03:36:02.503Z,13.20
2018-04-29T03:38:28.537Z,13.20
2018-04-29T03:40:55.337Z,13.20
2018-04-29T03:43:22.404Z,13.20
2018-04-29T03:45:48.791Z,13.10
2018-04-29T03:48:14.872Z,13.10
2018-04-29T03:50:40.927Z,13.00
2018-04-29T03:53:06.996Z,13.00
2018-04-29T03:55:33.661Z,13.00
2018-04-29T03:58:06.686Z,13.10
2018-04-29T04:00:48.981Z,13.00
2018-04-29T04:03:21.173Z,13.10
2018-04-29T04:05:47.218Z,13.00
2018-04-29T04:08:13.417Z,13.10
2018-04-29T04:10:39.493Z,13.10
2018-04-29T04:13:06.283Z,13.10
2018-04-29T04:15:32.474Z,13.10
2018-04-29T04:17:59.284Z,13.10
2018-04-29T04:20:25.344Z,13.10
2018-04-29T04:22:52.168Z,13.00
2018-04-29T04:25:19.096Z,13.10
2018-04-29T04:27:45.157Z,13.10
2018-04-29T04:30:11.949Z,13.00
2018-04-29T04:32:38.012Z,13.00
2018-04-29T04:35:04.818Z,12.90
2018-04-29T04:37:31.111Z,12.90
2018-04-29T04:39:57.164Z,13.10
2018-04-29T04:42:24.012Z,13.30
2018-04-29T04:44:50.834Z,13.40
2018-04-29T04:47:16.977Z,13.40
2018-04-29T04:49:43.060Z,13.60
2018-04-29T04:52:09.114Z,13.90
2018-04-29T04:54:35.528Z,14.20
2018-04-29T04:57:02.503Z,14.50
2018-04-29T05:02:01.470Z,15.00
2018-04-29T05:04:27.516Z,15.30
2018-04-29T05:06:53.725Z,15.60
2018-04-29T05:09:19.761Z,15.80
2018-04-29T05:11:45.803Z,16.10
2018-04-29T05:14:12.521Z,16.30
2018-04-29T05:16:39.293Z,16.60
2018-04-29T05:19:05.423Z,16.90
2018-04-29T05:21:31.511Z,17.10
2018-04-29T05:23:57.561Z,17.40
2018-04-29T05:26:24.545Z,17.60
2018-04-29T05:28:51.437Z,18.20
2018-04-29T05:31:19.427Z,18.20
2018-04-29T05:33:45.487Z,18.60
2018-04-29T05:36:12.961Z,19.00
2018-04-29T05:38:38.996Z,19.00
2018-04-29T05:41:05.058Z,19.30
2018-04-29T05:43:31.145Z,19.60
2018-04-29T05:45:57.195Z,19.80
2018-04-29T05:48:23.672Z,20.00
2018-04-29T05:50:51.814Z,20.40
2018-04-29T05:53:18.624Z,20.60
2018-04-29T05:55:45.455Z,20.50
2018-04-29T05:58:11.733Z,20.80
2018-04-29T06:00:37.936Z,20.90
2018-04-29T06:03:03.980Z,21.20
2018-04-29T06:05:30.071Z,21.40
2018-04-29T06:07:56.112Z,21.70
2018-04-29T06:10:22.263Z,21.90
2018-04-29T06:12:48.351Z,22.30
2018-04-29T06:15:15.070Z,22.50
2018-04-29T06:17:41.832Z,22.70
2018-04-29T06:20:07.884Z,23.00
2018-04-29T06:22:33.965Z,23.10
2018-04-29T06:25:00.022Z,22.90
2018-04-29T06:27:26.744Z,22.70
2018-04-29T06:29:52.800Z,22.50
2018-04-29T06:32:18.867Z,21.90
2018-04-29T06:34:44.916Z,21.40
2018-04-29T06:37:11.531Z,21.20
2018-04-29T06:39:37.581Z,20.90
2018-04-29T06:42:03.631Z,21.00
2018-04-29T06:44:29.718Z,21.50
2018-04-29T06:46:55.852Z,21.30
2018-04-29T06:49:21.886Z,20.90
2018-04-29T06:51:47.952Z,20.90
2018-04-29T06:54:14.738Z,20.40
2018-04-29T06:56:40.801Z,20.40
2018-04-29T06:59:09.782Z,20.80
2018-04-29T07:01:36.162Z,20.80
2018-04-29T07:04:03.036Z,21.30
2018-04-29T07:06:29.654Z,21.30
2018-04-29T07:08:55.728Z,21.90
2018-04-29T07:11:22.446Z,21.90
2018-04-29T07:13:48.551Z,22.10
2018-04-29T07:16:14.636Z,22.40
2018-04-29T07:18:40.732Z,22.90
2018-04-29T07:21:06.829Z,23.10
2018-04-29T07:23:33.188Z,22.80
2018-04-29T07:25:59.810Z,23.10
2018-04-29T07:28:26.558Z,24.00
2018-04-29T07:30:52.843Z,24.00
2018-04-29T07:33:21.386Z,24.20
2018-04-29T07:35:48.209Z,24.20
2018-04-29T07:38:14.268Z,24.20
2018-04-29T07:40:41.086Z,23.80
2018-04-29T07:43:07.489Z,23.80
2018-04-29T07:45:34.198Z,23.80
2018-04-29T07:48:00.289Z,23.60
2018-04-29T07:50:27.152Z,23.50
2018-04-29T07:52:53.985Z,23.40
2018-04-29T07:55:20.878Z,23.70
2018-04-29T07:57:47.678Z,24.10
2018-04-29T08:00:13.881Z,24.10
2018-04-29T08:02:40.713Z,24.60
2018-04-29T08:05:06.767Z,24.60
2018-04-29T08:07:33.564Z,24.70
2018-04-29T08:09:59.647Z,24.60
2018-04-29T08:12:25.716Z,24.70
2018-04-29T08:14:51.778Z,24.60
2018-04-29T08:17:18.661Z,23.60
2018-04-29T08:19:44.766Z,23.60
2018-04-29T08:22:10.853Z,23.80
2018-04-29T08:24:37.025Z,24.20
2018-04-29T08:27:03.391Z,24.50
2018-04-29T08:29:29.449Z,24.40
2018-04-29T08:31:56.691Z,23.90
2018-04-29T08:34:22.945Z,23.90
2018-04-29T08:36:49.424Z,23.80
2018-04-29T08:39:16.311Z,23.90
2018-04-29T08:41:43.387Z,24.00
2018-04-29T08:44:09.908Z,24.00
2018-04-29T08:46:36.004Z,24.00
2018-04-29T08:49:04.063Z,24.40
2018-04-29T08:51:30.350Z,24.40
2018-04-29T08:53:56.401Z,24.30
2018-04-29T08:56:22.689Z,24.50
2018-04-29T08:58:49.889Z,24.70
2018-04-29T09:01:15.941Z,24.70
2018-04-29T09:03:42.792Z,24.70
2018-04-29T09:06:08.824Z,24.70
2018-04-29T09:08:35.042Z,24.90
2018-04-29T09:11:01.877Z,24.70
2018-04-29T09:13:28.760Z,24.70
2018-04-29T09:15:55.033Z,24.70
2018-04-29T09:18:21.859Z,24.50
2018-04-29T09:20:48.331Z,24.50
2018-04-29T09:23:15.185Z,25.20
2018-04-29T09:25:41.256Z,25.20
2018-04-29T09:28:07.323Z,25.60
2018-04-29T09:30:34.149Z,25.70
2018-04-29T09:33:01.413Z,25.70
2018-04-29T09:35:28.205Z,25.90
2018-04-29T09:37:54.599Z,25.90
2018-04-29T09:40:20.687Z,26.10
2018-04-29T09:42:46.850Z,26.20
2018-04-29T09:45:13.006Z,26.60
2018-04-29T09:47:39.711Z,26.70
2018-04-29T09:50:06.532Z,26.60
2018-04-29T09:52:33.492Z,26.80
2018-04-29T09:55:00.290Z,26.90
2018-04-29T09:57:27.333Z,26.90
2018-04-29T09:59:53.418Z,27.20
2018-04-29T10:02:23.761Z,27.50
2018-04-29T10:04:50.820Z,27.40
2018-04-29T10:07:17.653Z,27.40
2018-04-29T10:09:43.725Z,27.40
2018-04-29T10:12:10.892Z,27.80
2018-04-29T10:14:37.765Z,27.60
2018-04-29T10:17:04.487Z,27.60
2018-04-29T10:19:30.545Z,27.70
2018-04-29T10:21:56.623Z,27.70
2018-04-29T10:24:24.027Z,27.40
2018-04-29T10:26:50.099Z,27.30
2018-04-29T10:29:16.980Z,27.30
2018-04-29T10:31:43.112Z,27.30
2018-04-29T10:34:09.500Z,27.60
2018-04-29T10:36:36.304Z,27.60
2018-04-29T10:39:02.421Z,27.60
2018-04-29T10:41:29.049Z,27.70
2018-04-29T10:43:55.422Z,27.90
2018-04-29T10:46:22.442Z,28.10
2018-04-29T10:48:48.991Z,28.10
2018-04-29T10:51:16.676Z,28.40
2018-04-29T10:53:42.776Z,28.40
2018-04-29T10:56:08.893Z,28.50
2018-04-29T10:58:34.973Z,28.60
2018-04-29T11:01:01.057Z,28.50
2018-04-29T11:03:27.128Z,28.40
2018-04-29T11:05:53.435Z,28.30
2018-04-29T11:08:19.998Z,28.00
2018-04-29T11:10:46.076Z,28.20
2018-04-29T11:13:12.949Z,28.60
2018-04-29T11:15:39.472Z,28.60
2018-04-29T11:18:06.349Z,28.40
2018-04-29T11:20:32.421Z,28.40
2018-04-29T11:22:59.233Z,28.00
2018-04-29T11:25:25.281Z,28.00
2018-04-29T11:27:52.752Z,27.80
2018-04-29T11:30:19.989Z,27.60
2018-04-29T11:32:46.099Z,27.60
2018-04-29T11:35:12.159Z,27.80
2018-04-29T11:37:39.539Z,28.00
2018-04-29T11:40:05.647Z,28.00
2018-04-29T11:42:31.723Z,28.10
2018-04-29T11:44:57.846Z,28.20
2018-04-29T11:47:24.342Z,28.00
2018-04-29T11:49:50.426Z,27.90
2018-04-29T11:52:17.252Z,28.20
2018-04-29T11:54:43.627Z,28.20
2018-04-29T11:57:10.525Z,28.30
2018-04-29T11:59:37.526Z,28.30
2018-04-29T12:02:03.641Z,28.20
2018-04-29T12:04:29.717Z,28.40
2018-04-29T12:06:56.213Z,28.50
2018-04-29T12:09:22.330Z,28.80
2018-04-29T12:11:48.943Z,28.80
2018-04-29T12:14:15.902Z,28.70
2018-04-29T12:16:43.640Z,28.60
2018-04-29T12:19:10.526Z,28.60
2018-04-29T12:21:36.629Z,28.60
2018-04-29T12:24:04.026Z,28.60
2018-04-29T12:26:30.137Z,28.60
2018-04-29T12:28:56.193Z,28.40
2018-04-29T12:31:22.854Z,28.60
2018-04-29T12:33:49.483Z,28.70
2018-04-29T12:36:16.087Z,28.90
2018-04-29T12:38:43.235Z,28.90
2018-04-29T12:41:09.490Z,28.90
2018-04-29T12:43:36.365Z,29.20
2018-04-29T12:46:03.221Z,29.20
2018-04-29T12:48:29.335Z,29.20
2018-04-29T12:50:56.174Z,29.20
2018-04-29T12:53:22.980Z,29.20
2018-04-29T12:55:49.812Z,29.20
2018-04-29T12:58:16.478Z,28.90
2018-04-29T13:00:42.556Z,28.80
2018-04-29T13:03:08.680Z,28.80
2018-04-29T13:05:34.823Z,28.90
2018-04-29T13:08:01.427Z,29.00
2018-04-29T13:10:27.749Z,29.00
2018-04-29T13:12:53.820Z,29.00
2018-04-29T13:15:20.631Z,29.10
2018-04-29T13:17:46.926Z,28.80
2018-04-29T13:20:13.174Z,28.70
2018-04-29T13:22:39.243Z,28.60
2018-04-29T13:25:05.321Z,28.90
2018-04-29T13:27:31.833Z,29.20
2018-04-29T13:29:57.913Z,28.90
2018-04-29T13:32:24.009Z,28.70
2018-04-29T13:34:50.086Z,28.60
2018-04-29T13:37:16.151Z,28.70
2018-04-29T13:39:42.224Z,28.80
2018-04-29T13:42:08.337Z,28.90
2018-04-29T13:44:35.166Z,28.90
2018-04-29T13:47:01.215Z,28.90
2018-04-29T13:49:27.283Z,29.10
2018-04-29T13:51:54.600Z,29.40
2018-04-29T13:54:21.996Z,29.50
2018-04-29T13:56:49.729Z,29.50
2018-04-29T13:59:15.786Z,29.40
2018-04-29T14:01:42.591Z,28.90
2018-04-29T14:04:08.668Z,28.90
2018-04-29T14:06:35.047Z,28.90
2018-04-29T14:09:01.913Z,28.90
2018-04-29T14:11:28.993Z,29.00
2018-04-29T14:13:55.047Z,29.00
2018-04-29T14:16:21.205Z,29.10
2018-04-29T14:18:48.375Z,28.90
2018-04-29T14:21:14.500Z,28.90
2018-04-29T14:23:40.655Z,29.10
2018-04-29T14:26:06.704Z,29.20
2018-04-29T14:28:32.799Z,29.20
2018-04-29T14:30:58.996Z,29.20
2018-04-29T14:33:25.787Z,29.60
2018-04-29T14:35:51.884Z,29.60
2018-04-29T14:38:17.927Z,29.50
2018-04-29T14:40:44.012Z,29.40
2018-04-29T14:43:11.210Z,29.50
2018-04-29T14:45:37.676Z,29.50
2018-04-29T14:48:04.496Z,29.00
2018-04-29T14:50:30.537Z,29.00
2018-04-29T14:52:57.643Z,29.10
2018-04-29T14:55:25.057Z,29.10
2018-04-29T14:57:52.471Z,29.10
2018-04-29T15:00:19.403Z,29.10
2018-04-29T15:02:45.476Z,29.10
2018-04-29T15:05:12.284Z,29.00
2018-04-29T15:07:38.619Z,29.00
2018-04-29T15:10:04.812Z,28.90
2018-04-29T15:12:31.189Z,28.60
2018-04-29T15:14:57.382Z,28.60
2018-04-29T15:17:23.467Z,28.60
2018-04-29T15:19:50.866Z,28.60
2018-04-29T15:22:17.466Z,28.70
2018-04-29T15:24:45.422Z,28.50
2018-04-29T15:27:12.871Z,28.30
2018-04-29T15:29:39.649Z,28.30
2018-04-29T15:32:07.341Z,28.20
2018-04-29T15:34:33.539Z,28.10
2018-04-29T15:36:59.785Z,28.20
2018-04-29T15:39:26.285Z,28.20
2018-04-29T15:41:52.342Z,28.00
2018-04-29T15:44:18.587Z,28.00
2018-04-29T15:46:44.679Z,27.90
2018-04-29T15:49:10.765Z,27.80
2018-04-29T15:51:37.808Z,27.80
2018-04-29T15:54:03.845Z,27.70
2018-04-29T15:56:30.646Z,27.80
2018-04-29T15:58:56.720Z,27.80
2018-04-29T16:01:24.174Z,27.50
2018-04-29T16:03:51.255Z,27.60
2018-04-29T16:06:17.309Z,27.60
2018-04-29T16:08:43.419Z,27.50
2018-04-29T16:11:09.504Z,27.60
2018-04-29T16:23:20.647Z,27.50
2018-04-29T16:25:46.775Z,27.20
2018-04-29T16:28:12.821Z,27.20
2018-04-29T16:30:39.182Z,27.30
2018-04-29T16:33:06.023Z,27.40
2018-04-29T16:35:32.388Z,27.40
2018-04-29T16:37:58.850Z,27.30
2018-04-29T16:40:25.626Z,27.30
2018-04-29T16:42:52.069Z,27.20
2018-04-29T16:45:18.292Z,27.30
2018-04-29T16:47:44.340Z,27.30
2018-04-29T16:50:11.160Z,27.10
2018-04-29T16:52:37.817Z,27.10
2018-04-29T16:55:04.841Z,27.00
2018-04-29T16:57:31.345Z,27.00
2018-04-29T16:59:57.394Z,26.90
2018-04-29T17:02:23.519Z,26.90
2018-04-29T17:04:49.581Z,26.90
2018-04-29T17:07:16.808Z,26.80
2018-04-29T17:09:43.627Z,26.70
2018-04-29T17:12:10.286Z,26.60
2018-04-29T17:14:36.368Z,26.70
2018-04-29T17:17:02.449Z,26.60
2018-04-29T17:19:28.537Z,26.60
2018-04-29T17:21:54.912Z,26.40
2018-04-29T17:24:22.044Z,26.30
2018-04-29T17:26:48.867Z,26.30
2018-04-29T17:29:15.042Z,26.30
2018-04-29T17:31:41.174Z,26.20
2018-04-29T17:34:07.437Z,26.10
2018-04-29T17:36:33.533Z,26.10
2018-04-29T17:38:59.996Z,26.10
2018-04-29T17:41:27.215Z,26.00
2018-04-29T17:43:53.620Z,25.90
2018-04-29T17:46:20.445Z,25.80
2018-04-29T17:48:46.568Z,25.70
2018-04-29T17:51:12.631Z,25.70
2018-04-29T17:53:38.704Z,25.60
2018-04-29T17:56:04.828Z,25.50
2018-04-29T17:58:30.881Z,25.50
2018-04-29T18:00:57.696Z,25.30
2018-04-29T18:03:23.775Z,25.30
2018-04-29T18:05:49.821Z,25.30
2018-04-29T18:08:15.910Z,25.20
2018-04-29T18:10:42.059Z,25.10
2018-04-29T18:13:08.252Z,25.10
2018-04-29T18:15:35.063Z,24.80
2018-04-29T18:18:01.169Z,24.80
2018-04-29T18:20:27.843Z,24.60
2018-04-29T18:22:54.211Z,24.50
2018-04-29T18:25:21.113Z,24.40
2018-04-29T18:27:47.597Z,24.30
2018-04-29T18:30:14.767Z,24.20
2018-04-29T18:32:40.869Z,24.10
2018-04-29T18:35:07.116Z,24.10
2018-04-29T18:37:33.185Z,24.00
2018-04-29T18:40:00.033Z,23.80
2018-04-29T18:42:26.833Z,23.60
2018-04-29T18:44:53.341Z,23.60
2018-04-29T18:47:19.393Z,23.60
2018-04-29T18:49:45.488Z,23.50
2018-04-29T18:52:11.668Z,23.30
2018-04-29T18:54:37.736Z,23.30
2018-04-29T18:57:04.367Z,23.20
2018-04-29T18:59:30.601Z,23.10
2018-04-29T19:01:56.710Z,23.00
2018-04-29T19:04:23.543Z,22.80
2018-04-29T19:06:50.989Z,22.70
2018-04-29T19:09:17.846Z,22.70
2018-04-29T19:11:44.862Z,22.60
2018-04-29T19:14:11.523Z,22.60
2018-04-29T19:16:38.072Z,22.60
2018-04-29T19:19:04.334Z,22.40
2018-04-29T19:21:30.500Z,22.40
2018-04-29T19:23:58.872Z,22.40
2018-04-29T19:26:24.987Z,22.30
2018-04-29T19:28:51.141Z,22.30
2018-04-29T19:31:18.288Z,22.30
2018-04-29T19:33:45.189Z,22.20
2018-04-29T19:36:11.332Z,22.20
2018-04-29T19:38:37.964Z,22.30
2018-04-29T19:41:04.459Z,22.30
2018-04-29T19:43:30.668Z,22.40
2018-04-29T19:45:58.329Z,22.40
2018-04-29T19:48:25.163Z,22.40
2018-04-29T19:50:51.999Z,22.40
2018-04-29T19:53:20.595Z,22.40
2018-04-29T19:55:46.700Z,22.30
2018-04-29T19:58:12.810Z,22.30
2018-04-29T20:00:38.898Z,22.30
2018-04-29T20:03:05.061Z,22.30
2018-04-29T20:05:31.618Z,22.30
2018-04-29T20:07:58.456Z,22.30
2018-04-29T20:10:26.299Z,22.30
2018-04-29T20:12:52.441Z,22.30
2018-04-29T20:15:19.286Z,22.30
2018-04-29T20:17:45.380Z,22.30
2018-04-29T20:20:11.893Z,22.20
2018-04-29T20:22:38.940Z,22.20
2018-04-29T20:25:05.278Z,22.20
2018-04-29T20:27:31.332Z,22.20
2018-04-29T20:29:57.445Z,22.20
2018-04-29T20:32:30.342Z,22.20
2018-04-29T20:34:56.797Z,22.20
2018-04-29T20:37:23.008Z,22.10
2018-04-29T20:39:49.088Z,22.10
2018-04-29T20:42:15.154Z,22.10
2018-04-29T20:44:41.196Z,22.10
2018-04-29T20:47:07.232Z,22.10
2018-04-29T20:49:34.254Z,22.00
2018-04-29T20:52:01.082Z,22.00
2018-04-29T20:54:27.921Z,22.10
2018-04-29T20:56:53.997Z,22.00
2018-04-29T20:59:20.087Z,22.10
2018-04-29T21:01:47.046Z,22.10
2018-04-29T21:04:14.135Z,22.10
2018-04-29T21:06:40.337Z,22.10
2018-04-29T21:09:07.415Z,22.10
2018-04-29T21:11:34.319Z,22.10
2018-04-29T21:14:01.105Z,22.10
2018-04-29T21:16:27.173Z,22.10
2018-04-29T21:18:53.389Z,22.10
2018-04-29T21:21:19.554Z,22.10
2018-04-29T21:23:45.652Z,22.10
2018-04-29T21:26:11.729Z,22.10
2018-04-29T21:28:38.266Z,22.10
2018-04-29T21:31:04.469Z,22.00
2018-04-29T21:33:30.552Z,22.10
2018-04-29T21:35:56.625Z,22.00
2018-04-29T21:38:22.899Z,21.90
2018-04-29T21:40:49.523Z,21.90
2018-04-29T21:43:16.144Z,21.90
2018-04-29T21:45:43.013Z,22.00
2018-04-29T21:48:09.099Z,22.00
2018-04-29T21:50:35.467Z,22.00
2018-04-29T21:53:02.191Z,22.10
2018-04-29T21:55:28.269Z,22.10
2018-04-29T21:57:55.160Z,22.10
2018-04-29T22:00:21.241Z,22.10
2018-04-29T22:02:48.574Z,22.00
2018-04-29T22:05:14.635Z,22.00
2018-04-29T22:07:40.749Z,22.00
2018-04-29T22:10:06.958Z,22.00
2018-04-29T22:12:34.654Z,21.80
2018-04-29T22:15:00.859Z,21.80
2018-04-29T22:17:27.658Z,22.00
2018-04-29T22:19:53.700Z,21.90
2018-04-29T22:22:19.783Z,21.90
2018-04-29T22:24:45.993Z,21.90
2018-04-29T22:27:12.969Z,22.00
2018-04-29T22:29:39.013Z,21.90
2018-04-29T22:32:06.050Z,21.90
2018-04-29T22:34:32.985Z,21.90
2018-04-29T22:36:59.055Z,21.90
2018-04-29T22:39:26.521Z,21.90
2018-04-29T22:41:53.109Z,21.90
2018-04-29T22:44:20.184Z,21.90
2018-04-29T22:46:47.002Z,21.90
2018-04-29T22:49:13.129Z,21.90
2018-04-29T22:51:39.176Z,21.80
2018-04-29T22:54:05.981Z,21.90
2018-04-29T22:56:32.554Z,21.90
2018-04-29T22:58:59.380Z,21.80
2018-04-29T23:01:26.146Z,21.80
2018-04-29T23:03:53.597Z,21.80
2018-04-29T23:06:19.639Z,21.80
2018-04-29T23:08:46.245Z,21.80
2018-04-29T23:11:12.300Z,21.80
2018-04-29T23:13:38.340Z,21.80
2018-04-29T23:16:04.944Z,21.70
2018-04-29T23:18:32.289Z,21.60
2018-04-29T23:20:58.352Z,21.60
2018-04-29T23:23:25.400Z,21.60
2018-04-29T23:25:51.436Z,21.70
2018-04-29T23:28:17.558Z,21.60
2018-04-29T23:30:43.601Z,21.60
2018-04-29T23:33:09.724Z,21.50
2018-04-29T23:35:36.284Z,21.50
2018-04-29T23:38:02.350Z,21.50
2018-04-29T23:40:28.381Z,21.50
2018-04-29T23:42:56.058Z,21.40
2018-04-29T23:45:22.128Z,21.50
2018-04-29T23:47:48.907Z,21.30
2018-04-29T23:50:14.975Z,21.30
2018-04-29T23:52:42.083Z,21.30
2018-04-29T23:55:08.480Z,21.30
2018-04-29T23:57:35.288Z,21.20
